Latest Coastal Weather Observations for Bairnsdale

IDV60701

Issued at 7:21 pm EST Friday 31 July 2015 (issued every 10 minutes, with the page automatically refreshed every 10 minutes)

About coastal observations | Map of coastal stations | Coastal observations for VIC | Marine services | Other Formats
Station Details ID: 085279 Name: BAIRNSDALE AIRPORT Lat: -37.88 Lon: 147.57 Height: 49.4 m
Data from the previous 72 hours. | See also: Recent months at Bairnsdale
Date/Time
EST
Temp

°C
Wind Pressure Rain
since 9am
mm
Weather Cloud Vis
km
Sea
Height
m
Swell
Dir
 
Speed
knots
Gust
knots
hPa Trend Height
m
Period
s
Dir
31/07:00pm 6.9 ENE 7 9 1016.5 - 0.0 - - 10 - - - -
31/06:30pm 7.4 ENE 7 9 1016.2 - 0.0 - - 10 - - - -
31/06:00pm 7.9 E 8 9 1016.1 - 0.0 - - 10 - - - -
31/05:30pm 8.4 E 9 10 1016.2 - 0.0 - - 10 - - - -
31/05:00pm 9.6 E 8 11 1016.2 - 0.0 - - 10 - - - -
31/04:30pm 11.1 E 9 11 1016.6 - 0.0 - - 10 - - - -
31/04:00pm 12.1 ESE 7 9 1016.9 - 0.0 - - 10 - - - -
31/03:30pm 12.3 SE 7 10 1017.3 - 0.0 - - 10 - - - -
31/03:00pm 12.7 E 7 10 1017.3 - 0.0 - - 10 - - - -
31/02:30pm 12.9 SE 5 7 1017.5 - 0.0 - - 10 - - - -
31/02:00pm 12.8 SSW 5 8 1018.1 - 0.0 - - 10 - - - -
31/01:30pm 12.7 S 5 8 1018.6 - 0.0 - - 10 - - - -
31/01:00pm 12.9 W 4 7 1018.9 - 0.0 - Partly cloudy 10 - - - -
31/12:30pm 13.2 WNW 5 7 1019.4 - 0.0 - - 10 - - - -
31/12:00pm 12.1 WSW 4 7 1019.9 - 0.0 - - 10 - - - -
31/11:30am 12.0 WNW 9 11 1020.7 - 0.0 - - 10 - - - -
31/11:00am 11.5 WNW 7 11 1021.1 - 0.0 - - 10 - - - -
31/10:30am 10.5 WNW 7 10 1021.1 - 0.0 - Partly cloudy 10 - - - -
31/10:00am 10.2 WNW 6 8 1021.1 - 0.0 - Partly cloudy 10 - - - -
31/09:30am 8.4 NNW 7 9 1021.1 - 0.0 - - 10 - - - -
31/09:00am 8.6 NW 6 9 1020.7 - 0.0 - - 10 - - - -
31/08:30am 8.4 W 8 13 1020.5 - 0.0 - Partly cloudy 10 - - - -
31/08:00am 5.4 W 5 6 1020.3 - 0.0 - - 10 - - - -
31/07:30am 4.5 NNW 4 4 1020.1 - 0.0 - - 10 - - - -
31/07:00am 5.5 SW 8 11 1019.6 - 0.0 - - 10 - - - -
31/06:30am 6.8 WSW 11 15 1019.2 - 0.0 - - 10 - - - -
31/06:00am 6.7 WSW 9 12 1018.7 - 0.0 - Mostly clear 10 - - - -
31/05:30am 7.5 WSW 10 14 1018.6 - 0.0 - - 10 - - - -
31/05:00am 7.6 WSW 10 14 1018.2 - 0.0 - - 10 - - - -
31/04:30am 7.8 WSW 11 15 1018.0 - 0.0 - Partly cloudy 10 - - - -
31/04:00am 8.7 WSW 14 20 1017.7 - 0.0 - Partly cloudy 10 - - - -
31/03:30am 9.3 WSW 14 19 1017.6 - 0.0 - Partly cloudy 10 - - - -
31/03:00am 9.6 WSW 14 18 1017.4 - 0.0 - Cloudy 10 - - - -
31/02:30am 10.1 WSW 17 25 1017.2 - 0.0 - Partly cloudy 10 - - - -
31/02:00am 10.4 WSW 16 21 1016.8 - 0.0 - Partly cloudy 10 - - - -
31/01:30am 10.4 WSW 17 26 1016.7 - 0.0 - Partly cloudy 10 - - - -
31/01:23am 10.3 WSW 16 26 1016.7 - 0.0 - Cloudy 10 - - - -
31/01:00am 9.6 WSW 12 19 1016.6 - 0.0 - Cloudy 10 - - - -
31/12:30am 10.3 WSW 13 20 1016.5 - 0.0 - Cloudy 10 - - - -
31/12:00am 11.3 WNW 10 14 1015.6 - 0.0 - Cloudy 10 - - - -
 
Date/Time
EST
Temp

°C
Wind Pressure Rain
since 9am
mm
Weather Cloud Vis
km
Sea
Height
m
Swell
Dir
 
Speed
knots
Gust
knots
hPa Trend Height
m
Period
s
Dir
30/11:30pm 11.2 NW 10 14 1015.2 - 0.0 - Cloudy 10 - - - -
30/11:00pm 11.3 NW 11 18 1014.8 - 0.0 - Cloudy 10 - - - -
30/10:30pm 11.7 NW 13 19 1014.2 - 0.0 - Cloudy 10 - - - -
30/10:00pm 11.4 NW 11 15 1014.2 - 0.0 - Cloudy 10 - - - -
30/09:30pm 12.0 NW 14 20 1013.7 - 0.0 - Cloudy 10 - - - -
30/09:00pm 12.3 NW 14 22 1013.5 - 0.0 - Cloudy 10 - - - -
30/08:30pm 12.2 NNW 17 24 1013.0 - 0.0 - Partly cloudy 10 - - - -
30/08:09pm 12.5 NW 15 25 1012.7 - 0.0 - Partly cloudy 10 - - - -
30/08:00pm 12.4 NW 12 18 1012.7 - 0.0 - Partly cloudy 10 - - - -
30/07:30pm 12.3 NW 11 16 1012.5 - 0.0 - Partly cloudy 10 - - - -
30/07:00pm 13.1 NNW 16 25 1011.7 - 0.0 - Cloudy 10 - - - -
30/06:40pm 12.9 NNW 16 26 1012.0 - 0.0 - Cloudy 10 - - - -
30/06:30pm 12.9 NW 16 22 1011.9 - 0.0 - Cloudy 10 - - - -
30/06:01pm 12.7 NNW 16 26 1012.0 - 0.0 - Partly cloudy 10 - - - -
30/06:00pm 12.8 NNW 17 26 1012.1 - 0.0 - Cloudy 10 - - - -
30/05:52pm 13.1 NNW 16 26 1012.0 - 0.0 - Partly cloudy 10 - - - -
30/05:30pm 12.9 NNW 14 21 1012.2 - 0.0 - Partly cloudy 10 - - - -
30/05:00pm 12.8 NNW 13 19 1012.7 - 0.0 - Partly cloudy 10 - - - -
30/04:30pm 12.5 NNW 11 18 1012.5 - 0.0 - Partly cloudy 10 - - - -
30/04:00pm 12.6 NNW 13 17 1013.0 - 0.0 - Cloudy 10 - - - -
30/03:30pm 12.7 NNW 8 13 1013.4 - 0.0 - Cloudy 10 - - - -
30/03:00pm 12.8 NNW 5 7 1013.7 - 0.0 - Mostly cloudy 10 - - - -
30/02:30pm 13.8 NNW 7 10 1014.3 - 0.0 - Partly cloudy 10 - - - -
30/02:00pm 14.1 NNW 8 11 1014.5 - 0.0 - - 10 - - - -
30/01:30pm 13.6 NNW 10 14 1015.2 - 0.0 - - 10 - - - -
30/01:00pm 14.1 NW 9 12 1016.4 - 0.0 - - 10 - - - -
30/12:30pm 14.3 NNW 8 11 1016.8 - 0.0 - - 10 - - - -
30/12:00pm 14.1 NNW 10 14 1018.0 - 0.0 - - 10 - - - -
30/11:30am 13.8 NNW 11 18 1018.8 - 0.0 - - 10 - - - -
30/11:00am 13.6 NNW 11 16 1019.4 - 0.0 - - 10 - - - -
30/10:30am 11.5 NNW 7 9 1020.1 - 0.0 - - 10 - - - -
30/10:00am 10.5 NNE 5 6 1020.4 - 0.0 - - 10 - - - -
30/09:30am 8.5 NNE 4 5 1020.7 - 0.0 - - 10 - - - -
30/09:00am 6.0 NNE 5 7 1020.8 - 0.0 - - 10 - - - -
30/08:30am 4.2 N 4 6 1021.4 - 0.0 - - 10 - - - -
30/08:00am 3.0 N 5 7 1021.5 - 0.0 - - 10 - - - -
30/07:30am 2.2 N 5 6 1022.0 - 0.0 - - 10 - - - -
30/07:00am 0.5 NNE 4 5 1022.2 - 0.0 - - 10 - - - -
30/06:30am 1.6 ENE 4 5 1022.4 - 0.0 - - 10 - - - -
30/06:00am 1.2 CALM 0 0 1022.6 - 0.0 - - 10 - - - -
30/05:30am 1.7 NE 3 4 1022.8 - 0.0 - - 10 - - - -
30/05:00am 2.7 NNE 5 6 1022.9 - 0.0 - - 10 - - - -
30/04:30am 2.5 NNE 4 5 1023.3 - 0.0 - - 10 - - - -
30/04:00am 3.3 NNE 4 6 1023.7 - 0.0 - - 10 - - - -
30/03:30am 2.1 NNW 3 5 1024.1 - 0.0 - - 10 - - - -
30/03:00am 3.3 N 3 5 1024.5 - 0.0 - Mostly clear 10 - - - -
30/02:30am 4.0 WNW 4 5 1025.2 - 0.0 - - 10 - - - -
30/02:00am 3.8 WNW 5 6 1025.6 - 0.0 - - 10 - - - -
30/01:30am 4.2 NW 5 7 1025.7 - 0.0 - - 10 - - - -
30/01:00am 5.0 NW 7 8 1026.3 - 0.0 - - 10 - - - -
30/12:30am 4.1 NW 5 7 1026.3 - 0.0 - - 10 - - - -
30/12:00am 5.0 N 4 5 1026.5 - 0.0 - - 10 - - - -
 
Date/Time
EST
Temp

°C
Wind Pressure Rain
since 9am
mm
Weather Cloud Vis
km
Sea
Height
m
Swell
Dir
 
Speed
knots
Gust
knots
hPa Trend Height
m
Period
s
Dir
29/11:30pm 5.3 N 4 5 1027.1 - 0.0 - - 10 - - - -
29/11:00pm 6.2 NNE 3 5 1027.4 - 0.0 - Partly cloudy 10 - - - -
29/10:30pm 6.7 NNE 4 5 1027.8 - 0.0 - Partly cloudy 10 - - - -
29/10:00pm 7.0 NE 5 6 1027.8 - 0.0 - Partly cloudy 10 - - - -
29/09:30pm 7.5 NE 7 8 1027.8 - 0.0 - Partly cloudy 10 - - - -
29/09:00pm 7.7 NNE 4 5 1028.5 - 0.0 - Mostly cloudy 10 - - - -
29/08:30pm 7.2 NNE 4 5 1028.3 - 0.0 - Cloudy 10 - - - -
29/08:00pm 8.2 NE 5 6 1028.5 - 0.0 - Cloudy 10 - - - -
29/07:30pm 8.3 NNE 5 6 1028.8 - 0.0 - Cloudy 10 - - - -
29/07:00pm 8.0 NNE 5 6 1028.9 - 0.0 - Partly cloudy 10 - - - -
29/06:30pm 8.1 NE 6 7 1028.4 - 0.0 - Partly cloudy 10 - - - -
29/06:00pm 8.7 NE 6 7 1028.5 - 0.0 - Partly cloudy 10 - - - -
29/05:30pm 9.2 NE 6 7 1028.6 - 0.0 - Cloudy 10 - - - -
29/05:00pm 10.0 ENE 3 5 1028.9 - 0.0 - Cloudy 10 - - - -
29/04:30pm 10.5 ENE 4 6 1028.7 - 0.0 - Partly cloudy 10 - - - -
29/04:00pm 11.3 ESE 5 6 1028.8 - 0.0 - - 10 - - - -
29/03:30pm 12.0 SSE 6 7 1029.1 - 0.0 - - 10 - - - -
29/03:00pm 12.6 SSE 4 7 1029.1 - 0.0 - - 10 - - - -
29/02:30pm 12.9 SSW 3 5 1029.1 - 0.0 - - 10 - - - -
29/02:00pm 13.4 NW 3 5 1029.7 - 0.0 - - 10 - - - -
29/01:30pm 13.1 NNW 5 7 1030.2 - 0.0 - - 10 - - - -
29/01:00pm 13.5 WNW 4 7 1030.5 - 0.0 - - 10 - - - -
29/12:30pm 13.2 NW 3 5 1031.2 - 0.0 - - 10 - - - -
29/12:00pm 12.9 NNW 5 7 1031.8 - 0.0 - - 10 - - - -
29/11:30am 12.0 NW 5 7 1032.4 - 0.0 - - 10 - - - -
29/11:00am 11.7 NW 5 7 1032.9 - 0.0 - - 10 - - - -
29/10:30am 10.5 WNW 6 8 1033.3 - 0.0 - - 10 - - - -
29/10:00am 8.8 WNW 5 7 1033.5 - 0.0 - - 10 - - - -
29/09:30am 7.0 NNW 6 8 1033.6 - 0.0 - - 10 - - - -
29/09:00am 6.3 N 5 6 1033.6 - 0.0 - - 10 - - - -
29/08:30am 3.9 NNE 5 6 1033.7 - 0.0 - - 10 - - - -
29/08:00am 4.0 NW 7 8 1033.7 - 0.0 - - 10 - - - -
29/07:30am 2.8 NW 7 9 1033.7 - 0.0 - - 10 - - - -
29/07:00am 1.9 NW 8 9 1033.4 - 0.0 - - 10 - - - -
29/06:30am 0.5 NW 5 7 1033.2 - 0.0 - - 10 - - - -
29/06:00am 1.8 N 7 8 1033.0 - 0.0 - - 10 - - - -
29/05:30am 2.2 NNW 6 7 1032.7 - 0.0 - - 10 - - - -
29/05:00am 1.5 NW 6 7 1032.9 - 0.0 - - 10 - - - -
29/04:30am 2.1 NNW 4 5 1032.9 - 0.0 - - 10 - - - -
29/04:00am 1.9 NNW 4 5 1032.9 - 0.0 - - 10 - - - -
29/03:30am 2.1 NW 4 6 1032.9 - 0.0 - - 10 - - - -
29/03:00am 3.1 NW 7 8 1032.9 - 0.0 - - 10 - - - -
29/02:30am 3.4 NW 5 6 1033.3 - 0.0 - - 10 - - - -
29/02:00am 3.9 WNW 8 9 1033.5 - 0.0 - - 10 - - - -
29/01:30am 3.7 NW 8 9 1033.6 - 0.0 - - 10 - - - -
29/01:00am 3.9 NW 7 9 1033.6 - 0.0 - - 10 - - - -
29/12:30am 4.1 NW 7 9 1033.7 - 0.0 - - 10 - - - -
29/12:00am 4.3 NW 7 8 1033.9 - 0.0 - Mostly clear 10 - - - -
 
Date/Time
EST
Temp

°C
Wind Pressure Rain
since 9am
mm
Weather Cloud Vis
km
Sea
Height
m
Swell
Dir
 
Speed
knots
Gust
knots
hPa Trend Height
m
Period
s
Dir
28/11:30pm 3.2 NW 5 7 1034.1 - 0.0 - - 10 - - - -
28/11:00pm 4.5 NW 6 8 1034.0 - 0.0 - - 10 - - - -
28/10:30pm 3.2 NW 5 6 1033.8 - 0.0 - - 10 - - - -
28/10:00pm 5.3 NNW 5 7 1033.8 - 0.0 - - 10 - - - -
28/09:30pm 5.7 W 6 8 1033.7 - 0.0 - - 10 - - - -
28/09:00pm 6.5 W 6 8 1033.7 - 0.0 - - 10 - - - -
28/08:30pm 6.2 WNW 7 8 1033.7 - 0.0 - - 10 - - - -
28/08:00pm 6.9 WNW 5 7 1033.7 - 0.0 - - 10 - - - -
28/07:30pm 8.9 W 9 13 1033.6 - 0.0 - - 10 - - - -

Other Formats:

Comma delimited format used in spreadsheet applications
http://www.bom.gov.au/fwo/IDV60701/IDV60701.94912.axf

JavaScript Object Notation format (JSON) in row-major order
http://www.bom.gov.au/fwo/IDV60701/IDV60701.94912.json